createdAt,value
2023-12-03T08:30:34.882Z,84.07
2023-12-03T08:40:37.360Z,80.45
2023-12-03T08:50:40.244Z,78.27
2023-12-03T09:00:42.737Z,76.44
2023-12-03T09:10:45.126Z,76.00
2023-12-03T09:20:47.853Z,76.16
2023-12-03T09:30:50.513Z,75.82
2023-12-03T09:41:12.482Z,73.24
2023-12-03T09:51:16.122Z,72.61
2023-12-03T10:01:19.194Z,73.35
2023-12-03T10:11:27.399Z,73.55
2023-12-03T10:21:29.758Z,72.77
2023-12-03T10:31:33.974Z,73.15
2023-12-03T10:41:36.529Z,70.77
2023-12-03T10:51:41.958Z,70.13
2023-12-03T11:01:55.466Z,71.46
2023-12-03T11:11:59.205Z,70.69
2023-12-03T11:22:10.106Z,70.18
2023-12-03T11:32:12.570Z,71.29
2023-12-03T11:42:16.555Z,70.63
2023-12-03T11:52:19.534Z,70.20
2023-12-03T12:02:21.930Z,69.47
2023-12-03T12:12:24.391Z,68.73
2023-12-03T12:22:27.496Z,71.00
2023-12-03T12:32:32.668Z,69.30
2023-12-03T12:42:35.950Z,67.64
2023-12-03T12:52:38.280Z,67.90
2023-12-03T13:02:41.162Z,68.36
2023-12-03T13:12:44.811Z,68.18
2023-12-03T13:22:47.306Z,67.48
2023-12-03T13:32:52.163Z,68.17
2023-12-03T13:42:55.264Z,68.13
2023-12-03T13:52:58.261Z,67.78
2023-12-03T14:03:00.668Z,67.81
2023-12-03T14:13:03.243Z,66.35
2023-12-03T14:33:25.369Z,68.71
2023-12-03T14:43:27.979Z,67.14
2023-12-03T14:53:30.314Z,67.54
2023-12-03T15:03:33.545Z,67.62
2023-12-03T15:13:36.234Z,66.92
2023-12-03T15:23:40.484Z,68.20
2023-12-03T15:33:43.311Z,68.55
2023-12-03T15:43:47.817Z,68.68
2023-12-03T15:53:50.606Z,69.29
2023-12-03T16:03:52.979Z,69.76
2023-12-03T16:13:55.510Z,68.77
2023-12-03T16:23:57.969Z,69.59
2023-12-03T16:34:00.397Z,69.31
2023-12-03T16:44:02.885Z,69.80
2023-12-03T17:04:28.122Z,69.56
2023-12-03T17:14:30.512Z,69.86
2023-12-03T17:24:40.449Z,69.41
2023-12-03T17:34:42.936Z,69.80
2023-12-03T17:44:45.415Z,69.73
2023-12-03T17:54:47.824Z,69.70
2023-12-03T18:04:51.165Z,70.00
2023-12-03T18:14:55.344Z,70.08
2023-12-03T18:24:57.728Z,70.11
2023-12-03T18:35:00.194Z,69.89
2023-12-03T18:45:04.394Z,70.55
2023-12-03T18:55:07.382Z,70.36
2023-12-03T19:05:09.971Z,70.57
2023-12-03T19:15:12.409Z,71.33
2023-12-03T19:35:38.119Z,70.90
2023-12-03T19:45:40.524Z,71.49
2023-12-03T20:06:05.986Z,71.36
2023-12-03T20:16:08.946Z,71.80
2023-12-03T20:36:37.831Z,72.14
2023-12-03T20:46:40.456Z,72.23
2023-12-03T20:56:42.790Z,72.29
2023-12-03T21:06:45.143Z,71.90
2023-12-03T21:20:12.394Z,71.70
2023-12-03T21:30:14.975Z,71.65
2023-12-03T21:40:17.526Z,71.47
2023-12-03T21:50:19.851Z,71.52
2023-12-03T22:00:22.351Z,71.13
2023-12-03T22:10:24.809Z,71.21
